createdAt,value
2018-03-31T00:00:50.722Z,2.90
2018-03-31T00:03:19.086Z,2.60
2018-03-31T00:05:47.440Z,2.90
2018-03-31T00:08:15.821Z,2.63
2018-03-31T00:10:44.299Z,2.80
2018-03-31T00:13:12.659Z,2.60
2018-03-31T00:15:41.007Z,2.30
2018-03-31T00:18:09.371Z,2.77
2018-03-31T00:20:37.733Z,3.37
2018-03-31T00:23:06.091Z,2.70
2018-03-31T00:25:34.444Z,3.60
2018-03-31T00:28:02.814Z,2.43
2018-03-31T00:30:31.978Z,3.00
2018-03-31T00:33:00.410Z,2.63
2018-03-31T00:35:29.559Z,2.77
2018-03-31T00:37:57.990Z,3.60
2018-03-31T00:40:26.375Z,3.33
2018-03-31T00:42:55.484Z,2.60
2018-03-31T00:45:23.829Z,2.93
2018-03-31T00:47:52.172Z,3.33
2018-03-31T00:50:20.511Z,2.60
2018-03-31T00:52:49.627Z,3.20
2018-03-31T00:55:18.015Z,3.10
2018-03-31T00:57:46.374Z,3.77
2018-03-31T01:00:15.512Z,3.60
2018-03-31T01:02:43.874Z,3.53
2018-03-31T01:05:12.246Z,3.87
2018-03-31T01:07:40.685Z,3.87
2018-03-31T01:10:10.015Z,4.70
2018-03-31T01:12:39.131Z,3.37
2018-03-31T01:15:07.485Z,3.70
2018-03-31T01:17:35.862Z,3.37
2018-03-31T01:20:04.214Z,3.80
2018-03-31T01:22:33.349Z,4.03
2018-03-31T01:25:01.670Z,3.50
2018-03-31T01:27:30.054Z,4.27
2018-03-31T01:29:58.386Z,4.50
2018-03-31T01:32:26.808Z,3.93
2018-03-31T01:34:55.219Z,4.10
2018-03-31T01:37:23.590Z,4.37
2018-03-31T01:39:51.960Z,4.60
2018-03-31T01:42:20.341Z,4.30
2018-03-31T01:44:49.456Z,4.57
2018-03-31T01:47:17.813Z,4.50
2018-03-31T01:49:46.184Z,5.33
2018-03-31T01:52:15.291Z,5.07
2018-03-31T01:54:43.685Z,5.47
2018-03-31T01:57:12.019Z,4.70
2018-03-31T01:59:41.187Z,4.93
2018-03-31T02:02:09.495Z,5.83
2018-03-31T02:04:38.631Z,5.30
2018-03-31T02:07:06.983Z,5.83
2018-03-31T02:09:36.100Z,5.40
2018-03-31T02:12:04.441Z,5.07
2018-03-31T02:14:33.560Z,6.07
2018-03-31T02:17:01.936Z,5.63
2018-03-31T02:19:31.057Z,5.10
2018-03-31T02:21:59.402Z,5.40
2018-03-31T02:24:28.535Z,6.27
2018-03-31T02:26:56.874Z,5.63
2018-03-31T02:29:25.317Z,6.90
2018-03-31T02:31:53.686Z,5.50
2018-03-31T02:34:22.055Z,6.40
2018-03-31T02:36:50.411Z,6.73
2018-03-31T02:39:18.778Z,6.20
2018-03-31T02:41:47.172Z,6.23
2018-03-31T02:44:15.535Z,6.10
2018-03-31T02:46:43.882Z,6.90
2018-03-31T02:49:13.037Z,6.87
2018-03-31T02:51:41.389Z,6.77
2018-03-31T02:54:09.775Z,6.83
2018-03-31T02:56:38.142Z,6.80
2018-03-31T02:59:06.507Z,6.70
2018-03-31T03:01:34.916Z,6.93
2018-03-31T03:04:03.259Z,7.60
2018-03-31T03:06:32.380Z,7.23
2018-03-31T03:09:00.758Z,6.90
2018-03-31T03:11:29.117Z,7.73
2018-03-31T03:13:57.463Z,7.37
2018-03-31T03:16:25.826Z,7.23
2018-03-31T03:18:54.274Z,7.13
2018-03-31T03:21:22.639Z,8.13
2018-03-31T03:23:50.992Z,7.90
2018-03-31T03:26:20.122Z,8.73
2018-03-31T03:28:48.472Z,8.47
2018-03-31T03:31:17.604Z,8.37
2018-03-31T03:33:45.959Z,8.40
2018-03-31T03:36:14.324Z,8.50
2018-03-31T03:38:43.452Z,8.37
2018-03-31T03:41:11.830Z,9.27
2018-03-31T03:43:40.195Z,9.07
2018-03-31T03:46:08.569Z,9.13
2018-03-31T03:48:36.919Z,9.73
2018-03-31T03:51:06.046Z,9.63
2018-03-31T03:53:34.666Z,10.47
2018-03-31T03:56:03.031Z,10.20
2018-03-31T03:58:31.379Z,9.70
2018-03-31T04:00:59.729Z,10.80
2018-03-31T04:03:28.844Z,10.17
2018-03-31T04:05:57.189Z,11.13
2018-03-31T04:08:25.555Z,9.63
2018-03-31T04:10:53.940Z,10.40
2018-03-31T04:13:22.468Z,11.03
2018-03-31T04:15:50.804Z,10.83
2018-03-31T04:18:19.186Z,9.90
2018-03-31T04:20:47.559Z,8.90
2018-03-31T04:23:16.706Z,10.13
2018-03-31T04:25:45.063Z,9.70
2018-03-31T04:28:13.420Z,9.43
2018-03-31T04:30:42.556Z,9.37
2018-03-31T04:33:10.895Z,9.73
2018-03-31T04:35:40.038Z,10.30
2018-03-31T04:38:08.387Z,10.70
2018-03-31T04:40:36.742Z,12.20
2018-03-31T04:43:05.892Z,10.90
2018-03-31T04:45:34.252Z,11.70
2018-03-31T04:48:02.622Z,12.20
2018-03-31T04:50:31.026Z,11.60
2018-03-31T04:52:59.413Z,12.60
2018-03-31T04:55:27.767Z,12.80
2018-03-31T04:57:56.120Z,13.10
2018-03-31T05:00:25.251Z,12.30
2018-03-31T05:02:53.588Z,12.47
2018-03-31T05:05:22.711Z,12.97
2018-03-31T05:07:51.070Z,12.97
2018-03-31T05:10:20.199Z,12.60
2018-03-31T05:12:48.579Z,12.80
2018-03-31T05:15:16.962Z,13.90
2018-03-31T05:17:45.324Z,13.93
2018-03-31T05:20:14.535Z,13.67
2018-03-31T05:22:42.968Z,13.10
2018-03-31T05:25:11.324Z,14.50
2018-03-31T05:27:40.757Z,15.00
2018-03-31T05:30:09.876Z,14.43
2018-03-31T05:32:38.233Z,14.17
2018-03-31T05:35:07.344Z,15.60
2018-03-31T05:37:35.729Z,15.50
2018-03-31T05:40:04.091Z,15.03
2018-03-31T05:42:32.474Z,14.00
2018-03-31T05:45:00.842Z,14.30
2018-03-31T05:47:29.238Z,14.80
2018-03-31T05:49:57.595Z,15.10
2018-03-31T05:52:25.978Z,14.57
2018-03-31T05:54:54.349Z,14.63
2018-03-31T05:57:23.489Z,13.53
2018-03-31T05:59:51.846Z,15.40
2018-03-31T06:02:20.219Z,14.93
2018-03-31T06:04:48.598Z,15.70
2018-03-31T06:07:16.982Z,14.27
2018-03-31T06:09:45.346Z,16.13
2018-03-31T06:12:13.848Z,15.13
2018-03-31T06:14:42.203Z,14.00
2018-03-31T06:17:10.551Z,15.40
2018-03-31T06:19:40.472Z,15.93
2018-03-31T06:22:10.540Z,15.43
2018-03-31T06:24:38.940Z,14.70
2018-03-31T06:27:07.289Z,13.70
2018-03-31T06:29:35.690Z,16.20
2018-03-31T06:32:04.035Z,16.47
2018-03-31T06:34:32.408Z,16.10
2018-03-31T06:37:00.755Z,14.30
2018-03-31T06:39:29.873Z,16.90
2018-03-31T06:41:58.252Z,16.90
2018-03-31T06:44:26.725Z,15.30
2018-03-31T06:46:55.071Z,15.47
2018-03-31T06:49:23.392Z,15.87
2018-03-31T06:51:51.784Z,15.40
2018-03-31T06:54:20.139Z,15.87
2018-03-31T06:56:48.516Z,16.63
2018-03-31T06:59:16.886Z,16.70
2018-03-31T07:01:46.011Z,15.63
2018-03-31T07:04:14.399Z,15.93
2018-03-31T07:06:42.818Z,16.70
2018-03-31T07:09:11.171Z,14.57
2018-03-31T07:11:39.535Z,16.97
2018-03-31T07:14:07.891Z,15.30
2018-03-31T07:16:36.269Z,15.77
2018-03-31T07:19:04.635Z,15.40
2018-03-31T07:21:33.018Z,16.47
2018-03-31T07:26:35.867Z,16.10
2018-03-31T07:29:04.227Z,15.70
2018-03-31T07:31:32.624Z,16.90
2018-03-31T07:34:01.266Z,15.90
2018-03-31T07:36:29.654Z,15.23
2018-03-31T07:38:58.193Z,15.17
2018-03-31T07:41:27.398Z,16.27
2018-03-31T07:43:56.531Z,15.60
2018-03-31T07:46:24.904Z,14.87
2018-03-31T07:48:54.095Z,13.77
2018-03-31T07:51:22.439Z,14.60
2018-03-31T07:53:51.581Z,12.90
2018-03-31T07:56:19.946Z,14.17
2018-03-31T07:58:48.307Z,12.73
2018-03-31T08:01:16.676Z,14.30
2018-03-31T08:03:45.095Z,13.20
2018-03-31T08:06:13.450Z,13.20
2018-03-31T08:08:41.808Z,16.00
2018-03-31T08:11:10.150Z,13.53
2018-03-31T08:13:38.523Z,13.10
2018-03-31T08:16:06.884Z,14.50
2018-03-31T08:18:35.291Z,13.27
2018-03-31T08:21:03.711Z,13.70
2018-03-31T08:23:32.076Z,12.93
2018-03-31T08:26:00.441Z,12.37
2018-03-31T08:28:29.604Z,13.33
2018-03-31T08:30:57.936Z,12.67
2018-03-31T08:33:26.307Z,12.73
2018-03-31T08:35:55.423Z,14.23
2018-03-31T08:38:23.815Z,13.50
2018-03-31T08:40:52.175Z,11.83
2018-03-31T08:43:20.524Z,11.47
2018-03-31T08:45:48.925Z,9.80
2018-03-31T08:48:17.575Z,10.70
2018-03-31T08:50:46.739Z,9.33
2018-03-31T08:53:15.846Z,10.70
2018-03-31T08:55:44.211Z,9.80
2018-03-31T08:58:12.602Z,9.27
2018-03-31T09:00:40.968Z,9.20
2018-03-31T09:03:09.329Z,8.50
2018-03-31T09:05:37.695Z,6.73
2018-03-31T09:08:07.015Z,7.27
2018-03-31T09:10:35.420Z,6.50
2018-03-31T09:13:03.823Z,5.47
2018-03-31T09:15:32.993Z,6.73
2018-03-31T09:18:01.355Z,9.20
2018-03-31T09:20:29.728Z,9.43
2018-03-31T09:22:58.107Z,9.07
2018-03-31T09:25:26.471Z,9.40
2018-03-31T09:27:54.858Z,9.13
2018-03-31T09:30:23.216Z,10.43
2018-03-31T09:32:51.745Z,9.67
2018-03-31T09:35:20.083Z,9.50
2018-03-31T09:37:48.461Z,9.87
2018-03-31T09:40:16.785Z,7.80
2018-03-31T09:42:45.903Z,7.43
2018-03-31T09:45:14.303Z,7.93
2018-03-31T09:47:42.699Z,7.90
2018-03-31T09:50:11.067Z,7.37
2018-03-31T09:52:39.460Z,6.83
2018-03-31T09:55:07.862Z,7.03
2018-03-31T09:57:37.001Z,9.57
2018-03-31T10:00:05.378Z,7.80
2018-03-31T10:02:33.717Z,6.30
2018-03-31T10:05:02.100Z,6.37
2018-03-31T10:07:30.449Z,5.00
2018-03-31T10:09:58.909Z,5.07
2018-03-31T10:12:27.239Z,5.27
2018-03-31T10:14:55.581Z,5.30
2018-03-31T10:17:23.976Z,6.57
2018-03-31T10:19:52.336Z,6.17
2018-03-31T10:22:20.694Z,5.13
2018-03-31T10:24:49.076Z,6.23
2018-03-31T10:27:17.459Z,6.23
2018-03-31T10:29:45.826Z,6.57
2018-03-31T10:32:14.174Z,6.20
2018-03-31T10:34:43.294Z,6.70
2018-03-31T10:37:11.671Z,6.23
2018-03-31T10:39:40.134Z,6.20
2018-03-31T10:42:09.337Z,6.57
2018-03-31T10:44:37.698Z,6.83
2018-03-31T10:47:06.871Z,6.30
2018-03-31T10:49:35.238Z,5.90
2018-03-31T10:52:03.616Z,8.10
2018-03-31T10:54:31.986Z,6.80
2018-03-31T10:57:00.342Z,7.37
2018-03-31T10:59:28.708Z,7.47
2018-03-31T11:01:57.091Z,7.83
2018-03-31T11:04:25.483Z,11.63
2018-03-31T11:06:53.860Z,9.57
2018-03-31T11:09:22.222Z,8.97
2018-03-31T11:11:50.599Z,9.47
2018-03-31T11:14:18.973Z,11.53
2018-03-31T11:16:47.364Z,11.20
2018-03-31T11:19:15.754Z,11.17
2018-03-31T11:21:44.187Z,11.80
2018-03-31T11:24:12.535Z,12.37
2018-03-31T11:26:40.936Z,12.70
2018-03-31T11:29:10.072Z,11.97
2018-03-31T11:31:38.441Z,10.93
2018-03-31T11:34:06.820Z,12.00
2018-03-31T11:36:35.200Z,10.43
2018-03-31T11:39:03.569Z,10.47
2018-03-31T11:41:31.947Z,10.20
2018-03-31T11:44:00.343Z,10.47
2018-03-31T11:46:28.712Z,10.50
2018-03-31T11:48:57.107Z,10.10
2018-03-31T11:51:25.489Z,9.33
2018-03-31T11:53:53.858Z,9.17
2018-03-31T11:56:22.239Z,8.47
2018-03-31T11:58:50.629Z,8.30
2018-03-31T12:01:19.020Z,7.03
2018-03-31T12:03:47.380Z,7.47
2018-03-31T12:06:15.752Z,8.93
2018-03-31T12:08:44.101Z,7.80
2018-03-31T12:11:13.242Z,7.83
2018-03-31T12:13:41.596Z,8.23
2018-03-31T12:16:09.963Z,6.97
2018-03-31T12:18:38.315Z,6.80
2018-03-31T12:21:07.953Z,7.30
2018-03-31T12:23:36.271Z,7.30
2018-03-31T12:26:04.681Z,5.70
2018-03-31T12:28:33.799Z,6.13
2018-03-31T12:31:02.186Z,6.77
2018-03-31T12:33:30.562Z,7.33
2018-03-31T12:35:58.933Z,6.23
2018-03-31T12:38:27.330Z,6.00
2018-03-31T12:40:55.732Z,6.43
2018-03-31T12:43:24.079Z,6.20
2018-03-31T12:45:52.455Z,6.00
2018-03-31T12:48:20.834Z,6.03
2018-03-31T12:50:49.170Z,5.87
2018-03-31T12:53:18.320Z,6.47
2018-03-31T12:55:46.690Z,6.80
2018-03-31T12:58:15.079Z,6.50
2018-03-31T13:00:43.551Z,6.23
2018-03-31T13:03:11.930Z,6.37
2018-03-31T13:05:40.308Z,6.17
2018-03-31T13:08:08.691Z,7.10
2018-03-31T13:10:37.054Z,5.80
2018-03-31T13:13:05.448Z,6.00
2018-03-31T13:15:33.842Z,6.07
2018-03-31T13:18:02.219Z,6.57
2018-03-31T13:20:30.601Z,6.00
2018-03-31T13:22:58.949Z,5.80
2018-03-31T13:25:27.308Z,5.40
2018-03-31T13:27:55.674Z,6.63
2018-03-31T13:30:24.085Z,6.67
2018-03-31T13:32:53.269Z,7.20
2018-03-31T13:35:21.648Z,6.60
2018-03-31T13:37:50.015Z,6.80
2018-03-31T13:40:18.434Z,7.50
2018-03-31T13:42:46.806Z,11.43
2018-03-31T13:45:15.254Z,8.17
2018-03-31T13:47:43.607Z,6.17
2018-03-31T13:50:12.746Z,5.37
2018-03-31T13:52:41.138Z,4.90
2018-03-31T13:55:09.511Z,5.10
2018-03-31T13:57:38.622Z,5.17
2018-03-31T14:00:07.007Z,4.80
2018-03-31T14:02:35.427Z,5.30
2018-03-31T14:05:03.775Z,4.93
2018-03-31T14:07:32.907Z,4.83
2018-03-31T14:10:01.337Z,5.17
2018-03-31T14:12:29.941Z,5.40
2018-03-31T14:14:59.109Z,6.40
2018-03-31T14:17:27.492Z,5.17
2018-03-31T14:19:55.851Z,6.17
2018-03-31T14:22:24.302Z,6.20
2018-03-31T14:24:52.781Z,5.90
2018-03-31T14:27:21.161Z,5.93
2018-03-31T14:29:49.550Z,6.50
2018-03-31T14:32:17.926Z,6.70
2018-03-31T14:34:46.398Z,6.13
2018-03-31T14:37:14.952Z,6.70
2018-03-31T14:39:44.115Z,6.30
2018-03-31T14:42:12.503Z,6.17
2018-03-31T14:44:40.843Z,7.73
2018-03-31T14:47:09.254Z,7.60
2018-03-31T14:49:37.635Z,5.63
2018-03-31T14:52:06.007Z,5.27
2018-03-31T14:54:34.390Z,7.80
2018-03-31T14:57:02.908Z,5.80
2018-03-31T14:59:31.269Z,6.80
2018-03-31T15:02:00.440Z,5.93
2018-03-31T15:04:30.314Z,5.43
2018-03-31T15:06:58.839Z,5.50
2018-03-31T15:09:27.182Z,5.10
2018-03-31T15:11:55.534Z,5.43
2018-03-31T15:14:23.939Z,5.93
2018-03-31T15:16:52.306Z,5.67
2018-03-31T15:19:20.711Z,5.30
2018-03-31T15:21:49.175Z,4.27
2018-03-31T15:24:17.514Z,4.20
2018-03-31T15:26:45.883Z,3.17
2018-03-31T15:29:14.282Z,3.30
2018-03-31T15:31:43.399Z,3.63
2018-03-31T15:34:11.825Z,5.57
2018-03-31T15:36:41.051Z,2.87
2018-03-31T15:39:09.551Z,3.00
2018-03-31T15:41:37.995Z,4.33
2018-03-31T15:44:07.332Z,5.40
2018-03-31T15:46:36.512Z,5.00
2018-03-31T15:49:05.651Z,5.27
2018-03-31T15:51:34.963Z,6.37
2018-03-31T15:54:03.355Z,7.30
2018-03-31T15:56:32.489Z,7.70
2018-03-31T15:59:00.851Z,8.80
2018-03-31T16:01:29.988Z,7.80
2018-03-31T16:03:58.399Z,8.00
2018-03-31T16:06:26.746Z,6.17
2018-03-31T16:08:55.147Z,6.37
2018-03-31T16:11:23.532Z,5.83
2018-03-31T16:13:52.679Z,6.10
2018-03-31T16:16:22.113Z,5.93
2018-03-31T16:18:50.483Z,5.70
2018-03-31T16:21:18.875Z,6.67
2018-03-31T16:23:47.182Z,9.90
2018-03-31T16:26:15.595Z,10.40
2018-03-31T16:28:43.964Z,8.50
2018-03-31T16:31:12.340Z,6.40
2018-03-31T16:33:40.694Z,6.37
2018-03-31T16:36:09.893Z,7.50
2018-03-31T16:38:39.014Z,7.23
2018-03-31T16:41:07.399Z,7.30
2018-03-31T16:43:35.791Z,10.80
2018-03-31T16:46:04.179Z,15.10
2018-03-31T16:48:32.584Z,13.27
2018-03-31T16:51:00.945Z,11.03
2018-03-31T16:53:29.326Z,11.70
2018-03-31T16:55:57.772Z,12.10
2018-03-31T16:58:26.232Z,9.40
2018-03-31T17:00:54.674Z,10.60
2018-03-31T17:03:23.062Z,9.13
2018-03-31T17:05:52.236Z,9.90
2018-03-31T17:08:23.639Z,9.00
2018-03-31T17:10:52.052Z,7.87
2018-03-31T17:13:20.467Z,8.30
2018-03-31T17:15:49.599Z,8.20
2018-03-31T17:18:17.981Z,8.30
2018-03-31T17:20:46.359Z,8.50
2018-03-31T17:23:14.743Z,8.40
2018-03-31T17:25:43.115Z,10.37
2018-03-31T17:28:11.497Z,11.77
2018-03-31T17:30:39.926Z,9.53
2018-03-31T17:33:08.306Z,10.80
2018-03-31T17:35:36.723Z,10.77
2018-03-31T17:38:05.123Z,10.47
2018-03-31T17:40:33.576Z,12.07
2018-03-31T17:43:02.002Z,12.03
2018-03-31T17:45:30.402Z,11.50
2018-03-31T17:47:59.542Z,10.03
2018-03-31T17:50:27.921Z,11.30
2018-03-31T17:52:56.359Z,10.70
2018-03-31T17:55:25.601Z,11.90
2018-03-31T17:57:53.970Z,12.40
2018-03-31T18:00:22.342Z,11.50
2018-03-31T18:02:50.711Z,11.57
2018-03-31T18:05:19.106Z,12.60
2018-03-31T18:07:47.552Z,11.90
2018-03-31T18:10:15.974Z,11.80
2018-03-31T18:12:44.343Z,11.90
2018-03-31T18:15:12.712Z,12.03
2018-03-31T18:17:41.080Z,11.80
2018-03-31T18:20:09.458Z,12.07
2018-03-31T18:22:39.523Z,12.43
2018-03-31T18:25:07.896Z,13.00
2018-03-31T18:27:36.275Z,15.50
2018-03-31T18:30:04.693Z,14.03
2018-03-31T18:32:33.858Z,14.63
2018-03-31T18:35:02.222Z,15.07
2018-03-31T18:37:30.746Z,15.33
2018-03-31T18:39:59.871Z,15.43
2018-03-31T18:42:28.277Z,16.50
2018-03-31T18:44:56.635Z,18.10
2018-03-31T18:47:25.760Z,37.03
2018-03-31T18:49:54.114Z,30.73
2018-03-31T18:52:22.685Z,33.33
2018-03-31T18:54:51.774Z,36.27
2018-03-31T18:57:20.148Z,35.50
2018-03-31T18:59:48.520Z,32.30
2018-03-31T19:02:16.894Z,31.17
2018-03-31T19:04:46.039Z,31.30
2018-03-31T19:07:14.476Z,29.00
2018-03-31T19:09:43.647Z,31.00
2018-03-31T19:12:12.804Z,35.83
2018-03-31T19:14:42.981Z,37.80
2018-03-31T19:17:16.330Z,39.63
2018-03-31T19:19:44.739Z,38.70
2018-03-31T19:22:13.129Z,36.63
2018-03-31T19:24:47.034Z,38.63
2018-03-31T19:27:15.400Z,45.33
2018-03-31T19:29:43.780Z,38.23
2018-03-31T19:32:12.143Z,41.00
2018-03-31T19:34:40.506Z,69.63
2018-03-31T19:37:08.883Z,86.67
2018-03-31T19:39:42.851Z,96.27
2018-03-31T19:42:11.252Z,85.20
2018-03-31T19:44:39.627Z,81.10
2018-03-31T19:47:08.018Z,73.13
2018-03-31T19:49:36.566Z,63.40
2018-03-31T19:52:04.942Z,58.00
2018-03-31T19:54:33.308Z,51.17
2018-03-31T19:57:01.772Z,46.20
2018-03-31T19:59:30.141Z,39.83
2018-03-31T20:01:58.498Z,40.47
2018-03-31T20:04:26.887Z,40.20
2018-03-31T20:06:55.247Z,39.50
2018-03-31T20:09:23.704Z,38.33
2018-03-31T20:11:52.063Z,36.50
2018-03-31T20:14:20.449Z,37.47
2018-03-31T20:16:48.820Z,36.17
2018-03-31T20:19:17.939Z,43.20
2018-03-31T20:21:46.588Z,51.57
2018-03-31T20:24:15.710Z,58.10
2018-03-31T20:26:44.086Z,57.13
2018-03-31T20:29:12.429Z,56.67
2018-03-31T20:31:41.578Z,51.97
2018-03-31T20:34:09.944Z,66.07
2018-03-31T20:36:38.321Z,69.07
2018-03-31T20:39:06.743Z,62.77
2018-03-31T20:41:35.156Z,55.50
2018-03-31T20:44:04.297Z,65.30
2018-03-31T20:46:32.648Z,71.20
2018-03-31T20:49:01.076Z,61.97
2018-03-31T20:51:29.497Z,50.90
2018-03-31T20:53:57.893Z,44.27
2018-03-31T20:56:26.254Z,42.03
2018-03-31T20:58:54.740Z,39.87
2018-03-31T21:01:23.144Z,42.50
2018-03-31T21:03:51.503Z,36.50
2018-03-31T21:06:19.902Z,36.37
2018-03-31T21:08:48.299Z,39.27
2018-03-31T21:11:16.673Z,40.30
2018-03-31T21:13:45.814Z,38.20
2018-03-31T21:16:14.187Z,39.70
2018-03-31T21:18:42.601Z,37.53
2018-03-31T21:21:10.936Z,40.57
2018-03-31T21:23:40.135Z,38.93
2018-03-31T21:26:09.303Z,40.57
2018-03-31T21:28:37.663Z,41.33
2018-03-31T21:31:06.110Z,42.80
2018-03-31T21:33:34.446Z,50.83
2018-03-31T21:36:02.820Z,51.47
2018-03-31T21:38:31.167Z,52.53
2018-03-31T21:40:59.581Z,53.40
2018-03-31T21:43:27.968Z,50.30
2018-03-31T21:45:56.331Z,48.87
2018-03-31T21:48:24.719Z,48.90
2018-03-31T21:50:53.079Z,47.50
2018-03-31T21:53:21.423Z,45.70
2018-03-31T21:55:49.783Z,48.07
2018-03-31T21:58:18.159Z,50.07
2018-03-31T22:00:46.590Z,49.00
2018-03-31T22:03:14.967Z,42.63
2018-03-31T22:05:43.334Z,40.67
2018-03-31T22:08:11.703Z,39.47
2018-03-31T22:10:40.077Z,35.80
2018-03-31T22:13:14.003Z,29.37
2018-03-31T22:15:47.899Z,30.17
2018-03-31T22:18:16.273Z,27.90
2018-03-31T22:20:44.614Z,28.70
2018-03-31T22:23:12.995Z,24.27
2018-03-31T22:25:41.385Z,23.50
2018-03-31T22:28:09.742Z,24.20
2018-03-31T22:30:38.098Z,25.40
2018-03-31T22:33:06.530Z,27.40
2018-03-31T22:35:34.938Z,25.70
2018-03-31T22:38:03.270Z,26.67
2018-03-31T22:40:32.383Z,27.50
2018-03-31T22:43:00.787Z,35.37
2018-03-31T22:45:29.903Z,35.60
2018-03-31T22:47:58.267Z,33.50
2018-03-31T22:50:26.644Z,32.27
2018-03-31T22:52:54.998Z,32.53
2018-03-31T22:55:23.383Z,30.67
2018-03-31T22:57:51.778Z,28.97
2018-03-31T23:00:20.142Z,28.27
2018-03-31T23:02:48.501Z,30.07
2018-03-31T23:05:16.876Z,34.27
2018-03-31T23:07:45.246Z,38.80
2018-03-31T23:10:13.614Z,36.03
2018-03-31T23:12:42.001Z,41.10
2018-03-31T23:15:10.383Z,40.27
2018-03-31T23:17:38.766Z,35.13
2018-03-31T23:20:07.138Z,37.77
2018-03-31T23:22:35.524Z,43.30
2018-03-31T23:25:03.911Z,44.53
2018-03-31T23:27:32.264Z,46.10
2018-03-31T23:30:00.631Z,47.80
2018-03-31T23:32:28.980Z,49.70
2018-03-31T23:34:57.338Z,49.07
2018-03-31T23:37:25.728Z,53.63
2018-03-31T23:39:54.068Z,51.23
2018-03-31T23:42:22.425Z,54.10
2018-03-31T23:44:50.774Z,50.83
2018-03-31T23:47:19.899Z,52.53
2018-03-31T23:49:48.257Z,47.40
2018-03-31T23:52:17.382Z,48.03
2018-03-31T23:54:45.742Z,51.13
2018-03-31T23:57:14.098Z,51.90
2018-03-31T23:59:42.450Z,52.83
